sensor_id;sensor_type;location;lat;lon;timestamp;P1;durP1;ratioP1;P2;durP2;ratioP2
41952;SDS011;63613;28.200;112.870;2022-09-27T00:01:09;35.35;;;27.00;;
41952;SDS011;63613;28.200;112.870;2022-09-27T00:03:38;37.72;;;27.60;;
41952;SDS011;63613;28.200;112.870;2022-09-27T00:06:18;32.97;;;27.40;;
41952;SDS011;63613;28.200;112.870;2022-09-27T00:08:46;33.83;;;25.95;;
41952;SDS011;63613;28.200;112.870;2022-09-27T00:11:26;30.67;;;25.30;;
41952;SDS011;63613;28.200;112.870;2022-09-27T00:13:56;32.22;;;26.27;;
41952;SDS011;63613;28.200;112.870;2022-09-27T00:16:31;36.80;;;27.40;;
41952;SDS011;63613;28.200;112.870;2022-09-27T00:19:01;35.53;;;25.90;;
41952;SDS011;63613;28.200;112.870;2022-09-27T00:21:30;37.05;;;27.58;;
41952;SDS011;63613;28.200;112.870;2022-09-27T00:23:57;38.08;;;28.23;;
41952;SDS011;63613;28.200;112.870;2022-09-27T00:26:25;31.05;;;25.38;;
41952;SDS011;63613;28.200;112.870;2022-09-27T00:28:53;34.13;;;25.05;;
41952;SDS011;63613;28.200;112.870;2022-09-27T00:31:24;33.60;;;25.52;;
41952;SDS011;63613;28.200;112.870;2022-09-27T00:33:57;33.60;;;26.58;;
41952;SDS011;63613;28.200;112.870;2022-09-27T00:36:27;30.50;;;25.67;;
41952;SDS011;63613;28.200;112.870;2022-09-27T00:38:55;36.95;;;26.95;;
41952;SDS011;63613;28.200;112.870;2022-09-27T00:41:25;35.97;;;27.30;;
41952;SDS011;63613;28.200;112.870;2022-09-27T00:43:58;31.75;;;24.65;;
41952;SDS011;63613;28.200;112.870;2022-09-27T00:51:54;32.05;;;24.17;;
41952;SDS011;63613;28.200;112.870;2022-09-27T00:54:27;31.08;;;24.60;;
41952;SDS011;63613;28.200;112.870;2022-09-27T00:56:55;32.60;;;26.48;;
41952;SDS011;63613;28.200;112.870;2022-09-27T01:01:58;35.47;;;27.42;;
41952;SDS011;63613;28.200;112.870;2022-09-27T01:04:30;46.25;;;33.58;;
41952;SDS011;63613;28.200;112.870;2022-09-27T01:06:58;37.53;;;27.77;;
41952;SDS011;63613;28.200;112.870;2022-09-27T01:09:26;32.97;;;26.27;;
41952;SDS011;63613;28.200;112.870;2022-09-27T01:12:05;37.78;;;29.30;;
41952;SDS011;63613;28.200;112.870;2022-09-27T01:14:46;33.15;;;25.02;;
41952;SDS011;63613;28.200;112.870;2022-09-27T01:25:56;31.95;;;25.42;;
41952;SDS011;63613;28.200;112.870;2022-09-27T01:40:10;37.13;;;27.98;;
41952;SDS011;63613;28.200;112.870;2022-09-27T01:46:16;32.83;;;24.85;;
41952;SDS011;63613;28.200;112.870;2022-09-27T01:48:47;37.10;;;26.73;;
41952;SDS011;63613;28.200;112.870;2022-09-27T01:51:20;40.03;;;30.20;;
41952;SDS011;63613;28.200;112.870;2022-09-27T01:53:53;32.25;;;25.17;;
41952;SDS011;63613;28.200;112.870;2022-09-27T01:56:33;40.63;;;28.45;;
41952;SDS011;63613;28.200;112.870;2022-09-27T01:59:14;32.70;;;25.40;;
41952;SDS011;63613;28.200;112.870;2022-09-27T02:01:50;35.05;;;24.55;;
41952;SDS011;63613;28.200;112.870;2022-09-27T02:04:20;35.42;;;24.40;;
41952;SDS011;63613;28.200;112.870;2022-09-27T02:06:52;33.22;;;26.33;;
41952;SDS011;63613;28.200;112.870;2022-09-27T02:09:29;33.65;;;25.80;;
41952;SDS011;63613;28.200;112.870;2022-09-27T02:12:08;30.33;;;23.90;;
41952;SDS011;63613;28.200;112.870;2022-09-27T02:14:43;32.53;;;25.83;;
41952;SDS011;63613;28.200;112.870;2022-09-27T02:22:48;32.35;;;25.65;;
41952;SDS011;63613;28.200;112.870;2022-09-27T02:25:21;31.35;;;23.38;;
41952;SDS011;63613;28.200;112.870;2022-09-27T02:30:20;32.85;;;25.60;;
41952;SDS011;63613;28.200;112.870;2022-09-27T02:32:48;34.78;;;24.83;;
41952;SDS011;63613;28.200;112.870;2022-09-27T02:35:21;32.70;;;23.55;;
41952;SDS011;63613;28.200;112.870;2022-09-27T02:37:57;31.17;;;24.98;;
41952;SDS011;63613;28.200;112.870;2022-09-27T02:40:29;34.92;;;26.23;;
41952;SDS011;63613;28.200;112.870;2022-09-27T02:42:58;33.97;;;23.40;;
41952;SDS011;63613;28.200;112.870;2022-09-27T02:45:29;29.45;;;22.52;;
41952;SDS011;63613;28.200;112.870;2022-09-27T02:48:12;28.63;;;20.60;;
41952;SDS011;63613;28.200;112.870;2022-09-27T02:54:56;35.53;;;24.73;;
41952;SDS011;63613;28.200;112.870;2022-09-27T03:07:09;36.83;;;26.60;;
41952;SDS011;63613;28.200;112.870;2022-09-27T03:09:45;31.80;;;23.27;;
41952;SDS011;63613;28.200;112.870;2022-09-27T03:12:17;28.20;;;22.33;;
41952;SDS011;63613;28.200;112.870;2022-09-27T03:14:59;33.33;;;23.20;;
41952;SDS011;63613;28.200;112.870;2022-09-27T03:17:27;29.15;;;24.48;;
41952;SDS011;63613;28.200;112.870;2022-09-27T03:19:54;31.48;;;22.17;;
41952;SDS011;63613;28.200;112.870;2022-09-27T03:22:21;31.27;;;23.52;;
41952;SDS011;63613;28.200;112.870;2022-09-27T03:24:48;29.33;;;24.02;;
41952;SDS011;63613;28.200;112.870;2022-09-27T03:27:15;34.55;;;24.27;;
41952;SDS011;63613;28.200;112.870;2022-09-27T03:29:44;36.42;;;25.63;;
41952;SDS011;63613;28.200;112.870;2022-09-27T03:32:11;30.77;;;24.75;;
41952;SDS011;63613;28.200;112.870;2022-09-27T03:34:38;34.00;;;23.67;;
41952;SDS011;63613;28.200;112.870;2022-09-27T03:37:05;32.20;;;23.38;;
41952;SDS011;63613;28.200;112.870;2022-09-27T03:39:33;36.65;;;25.52;;
41952;SDS011;63613;28.200;112.870;2022-09-27T03:42:00;38.38;;;26.73;;
41952;SDS011;63613;28.200;112.870;2022-09-27T03:44:27;35.65;;;24.50;;
41952;SDS011;63613;28.200;112.870;2022-09-27T03:46:54;30.80;;;22.67;;
41952;SDS011;63613;28.200;112.870;2022-09-27T03:49:23;36.95;;;23.33;;
41952;SDS011;63613;28.200;112.870;2022-09-27T03:51:50;34.55;;;23.92;;
41952;SDS011;63613;28.200;112.870;2022-09-27T03:54:18;29.92;;;23.38;;
41952;SDS011;63613;28.200;112.870;2022-09-27T03:56:45;32.53;;;23.27;;
41952;SDS011;63613;28.200;112.870;2022-09-27T03:59:12;31.38;;;22.52;;
41952;SDS011;63613;28.200;112.870;2022-09-27T04:01:39;28.13;;;22.15;;
41952;SDS011;63613;28.200;112.870;2022-09-27T04:04:09;24.38;;;21.20;;
41952;SDS011;63613;28.200;112.870;2022-09-27T04:06:36;27.88;;;20.75;;
41952;SDS011;63613;28.200;112.870;2022-09-27T04:09:03;30.25;;;22.13;;
41952;SDS011;63613;28.200;112.870;2022-09-27T04:11:30;27.10;;;23.23;;
41952;SDS011;63613;28.200;112.870;2022-09-27T04:13:57;32.58;;;23.52;;
41952;SDS011;63613;28.200;112.870;2022-09-27T04:16:24;33.33;;;24.00;;
41952;SDS011;63613;28.200;112.870;2022-09-27T04:18:52;31.15;;;22.42;;
41952;SDS011;63613;28.200;112.870;2022-09-27T04:21:19;28.77;;;21.85;;
41952;SDS011;63613;28.200;112.870;2022-09-27T04:23:47;28.13;;;21.27;;
41952;SDS011;63613;28.200;112.870;2022-09-27T04:26:14;27.45;;;23.23;;
41952;SDS011;63613;28.200;112.870;2022-09-27T04:28:42;28.40;;;22.10;;
41952;SDS011;63613;28.200;112.870;2022-09-27T04:31:09;30.85;;;21.88;;
41952;SDS011;63613;28.200;112.870;2022-09-27T04:33:36;24.85;;;20.77;;
41952;SDS011;63613;28.200;112.870;2022-09-27T04:36:04;30.13;;;21.70;;
41952;SDS011;63613;28.200;112.870;2022-09-27T04:38:49;31.00;;;23.60;;
41952;SDS011;63613;28.200;112.870;2022-09-27T04:41:18;27.45;;;21.20;;
41952;SDS011;63613;28.200;112.870;2022-09-27T04:44:05;32.22;;;21.73;;
41952;SDS011;63613;28.200;112.870;2022-09-27T04:46:35;31.27;;;23.85;;
41952;SDS011;63613;28.200;112.870;2022-09-27T04:49:02;26.85;;;21.45;;
41952;SDS011;63613;28.200;112.870;2022-09-27T04:51:30;28.35;;;21.23;;
41952;SDS011;63613;28.200;112.870;2022-09-27T04:53:57;24.45;;;20.67;;
41952;SDS011;63613;28.200;112.870;2022-09-27T04:56:24;26.25;;;20.08;;
41952;SDS011;63613;28.200;112.870;2022-09-27T04:58:51;27.35;;;20.85;;
41952;SDS011;63613;28.200;112.870;2022-09-27T05:01:18;25.77;;;20.60;;
41952;SDS011;63613;28.200;112.870;2022-09-27T05:03:45;23.23;;;19.00;;
41952;SDS011;63613;28.200;112.870;2022-09-27T05:06:13;26.92;;;20.17;;
41952;SDS011;63613;28.200;112.870;2022-09-27T05:08:40;25.98;;;20.58;;
41952;SDS011;63613;28.200;112.870;2022-09-27T05:11:07;26.92;;;20.25;;
41952;SDS011;63613;28.200;112.870;2022-09-27T05:13:34;31.02;;;22.02;;
41952;SDS011;63613;28.200;112.870;2022-09-27T05:16:02;33.85;;;23.15;;
41952;SDS011;63613;28.200;112.870;2022-09-27T05:18:30;27.92;;;22.23;;
41952;SDS011;63613;28.200;112.870;2022-09-27T05:20:57;29.42;;;22.75;;
41952;SDS011;63613;28.200;112.870;2022-09-27T05:23:25;33.88;;;22.50;;
41952;SDS011;63613;28.200;112.870;2022-09-27T05:25:52;31.30;;;22.77;;
41952;SDS011;63613;28.200;112.870;2022-09-27T05:28:21;33.33;;;22.77;;
41952;SDS011;63613;28.200;112.870;2022-09-27T05:30:51;30.95;;;22.38;;
41952;SDS011;63613;28.200;112.870;2022-09-27T05:33:18;33.38;;;22.33;;
41952;SDS011;63613;28.200;112.870;2022-09-27T05:35:54;27.33;;;21.05;;
41952;SDS011;63613;28.200;112.870;2022-09-27T05:38:23;34.50;;;21.90;;
41952;SDS011;63613;28.200;112.870;2022-09-27T05:40:51;32.70;;;23.15;;
41952;SDS011;63613;28.200;112.870;2022-09-27T05:43:18;30.15;;;20.98;;
41952;SDS011;63613;28.200;112.870;2022-09-27T05:45:46;33.92;;;22.88;;
41952;SDS011;63613;28.200;112.870;2022-09-27T05:48:15;29.70;;;21.75;;
41952;SDS011;63613;28.200;112.870;2022-09-27T05:50:44;32.45;;;21.17;;
41952;SDS011;63613;28.200;112.870;2022-09-27T05:53:11;31.35;;;21.02;;
41952;SDS011;63613;28.200;112.870;2022-09-27T05:55:38;26.77;;;21.13;;
41952;SDS011;63613;28.200;112.870;2022-09-27T05:58:09;25.88;;;20.73;;
41952;SDS011;63613;28.200;112.870;2022-09-27T06:00:40;28.42;;;20.13;;
41952;SDS011;63613;28.200;112.870;2022-09-27T06:03:09;25.95;;;20.35;;
41952;SDS011;63613;28.200;112.870;2022-09-27T06:05:55;23.77;;;19.50;;
41952;SDS011;63613;28.200;112.870;2022-09-27T06:08:26;29.13;;;22.52;;
41952;SDS011;63613;28.200;112.870;2022-09-27T06:10:59;28.17;;;20.85;;
41952;SDS011;63613;28.200;112.870;2022-09-27T06:13:29;27.58;;;20.48;;
41952;SDS011;63613;28.200;112.870;2022-09-27T06:16:01;24.27;;;18.25;;
41952;SDS011;63613;28.200;112.870;2022-09-27T06:18:28;24.60;;;18.73;;
41952;SDS011;63613;28.200;112.870;2022-09-27T06:20:59;23.00;;;18.33;;
41952;SDS011;63613;28.200;112.870;2022-09-27T06:23:27;22.17;;;19.00;;
41952;SDS011;63613;28.200;112.870;2022-09-27T06:26:01;24.42;;;18.02;;
41952;SDS011;63613;28.200;112.870;2022-09-27T06:28:32;26.27;;;19.08;;
41952;SDS011;63613;28.200;112.870;2022-09-27T06:31:04;24.48;;;17.40;;
41952;SDS011;63613;28.200;112.870;2022-09-27T06:33:33;19.90;;;17.92;;
41952;SDS011;63613;28.200;112.870;2022-09-27T06:36:01;23.10;;;18.00;;
41952;SDS011;63613;28.200;112.870;2022-09-27T06:38:32;26.73;;;20.27;;
41952;SDS011;63613;28.200;112.870;2022-09-27T06:41:00;26.90;;;20.35;;
41952;SDS011;63613;28.200;112.870;2022-09-27T06:43:29;32.20;;;20.30;;
41952;SDS011;63613;28.200;112.870;2022-09-27T06:45:58;26.00;;;19.55;;
41952;SDS011;63613;28.200;112.870;2022-09-27T06:50:57;20.58;;;18.38;;
41952;SDS011;63613;28.200;112.870;2022-09-27T06:53:44;25.13;;;18.70;;
41952;SDS011;63613;28.200;112.870;2022-09-27T06:56:12;23.10;;;20.20;;
41952;SDS011;63613;28.200;112.870;2022-09-27T06:58:39;25.88;;;19.83;;
41952;SDS011;63613;28.200;112.870;2022-09-27T07:01:27;25.65;;;20.95;;
41952;SDS011;63613;28.200;112.870;2022-09-27T07:03:55;28.10;;;19.23;;
41952;SDS011;63613;28.200;112.870;2022-09-27T07:06:23;25.35;;;18.92;;
41952;SDS011;63613;28.200;112.870;2022-09-27T07:08:52;29.45;;;19.65;;
41952;SDS011;63613;28.200;112.870;2022-09-27T07:11:20;26.02;;;20.05;;
41952;SDS011;63613;28.200;112.870;2022-09-27T07:13:50;25.38;;;19.95;;
41952;SDS011;63613;28.200;112.870;2022-09-27T07:16:18;27.33;;;20.73;;
41952;SDS011;63613;28.200;112.870;2022-09-27T07:18:46;23.80;;;19.52;;
41952;SDS011;63613;28.200;112.870;2022-09-27T07:21:14;26.67;;;19.52;;
41952;SDS011;63613;28.200;112.870;2022-09-27T07:23:41;26.20;;;19.10;;
41952;SDS011;63613;28.200;112.870;2022-09-27T07:26:09;25.75;;;18.67;;
41952;SDS011;63613;28.200;112.870;2022-09-27T07:28:37;26.98;;;20.95;;
41952;SDS011;63613;28.200;112.870;2022-09-27T07:31:06;22.20;;;19.50;;
41952;SDS011;63613;28.200;112.870;2022-09-27T07:33:35;24.88;;;19.52;;
41952;SDS011;63613;28.200;112.870;2022-09-27T07:36:08;24.60;;;19.48;;
41952;SDS011;63613;28.200;112.870;2022-09-27T07:38:36;25.75;;;19.40;;
41952;SDS011;63613;28.200;112.870;2022-09-27T07:41:07;23.92;;;19.10;;
41952;SDS011;63613;28.200;112.870;2022-09-27T07:43:54;28.23;;;19.85;;
41952;SDS011;63613;28.200;112.870;2022-09-27T07:46:22;24.27;;;18.40;;
41952;SDS011;63613;28.200;112.870;2022-09-27T07:48:50;25.33;;;18.60;;
41952;SDS011;63613;28.200;112.870;2022-09-27T07:51:17;20.00;;;17.90;;
41952;SDS011;63613;28.200;112.870;2022-09-27T07:54:04;28.23;;;20.17;;
41952;SDS011;63613;28.200;112.870;2022-09-27T07:56:32;23.38;;;19.60;;
41952;SDS011;63613;28.200;112.870;2022-09-27T07:58:59;25.10;;;20.52;;
41952;SDS011;63613;28.200;112.870;2022-09-27T08:01:27;23.92;;;19.65;;
41952;SDS011;63613;28.200;112.870;2022-09-27T08:04:14;23.45;;;19.83;;
41952;SDS011;63613;28.200;112.870;2022-09-27T08:06:41;22.40;;;19.70;;
41952;SDS011;63613;28.200;112.870;2022-09-27T08:09:08;24.30;;;20.23;;
41952;SDS011;63613;28.200;112.870;2022-09-27T08:11:55;27.80;;;22.40;;
41952;SDS011;63613;28.200;112.870;2022-09-27T08:14:23;23.95;;;18.13;;
41952;SDS011;63613;28.200;112.870;2022-09-27T08:16:50;21.73;;;19.40;;
41952;SDS011;63613;28.200;112.870;2022-09-27T08:19:17;26.15;;;19.88;;
41952;SDS011;63613;28.200;112.870;2022-09-27T08:21:44;24.90;;;19.73;;
41952;SDS011;63613;28.200;112.870;2022-09-27T08:24:12;22.58;;;19.05;;
41952;SDS011;63613;28.200;112.870;2022-09-27T08:26:39;27.95;;;19.88;;
41952;SDS011;63613;28.200;112.870;2022-09-27T08:29:07;26.58;;;20.17;;
41952;SDS011;63613;28.200;112.870;2022-09-27T08:31:37;27.70;;;20.88;;
41952;SDS011;63613;28.200;112.870;2022-09-27T08:34:10;24.75;;;21.85;;
41952;SDS011;63613;28.200;112.870;2022-09-27T08:36:37;22.75;;;20.33;;
41952;SDS011;63613;28.200;112.870;2022-09-27T08:39:05;28.42;;;20.65;;
41952;SDS011;63613;28.200;112.870;2022-09-27T08:49:17;26.63;;;21.00;;
41952;SDS011;63613;28.200;112.870;2022-09-27T08:52:16;26.02;;;20.25;;
41952;SDS011;63613;28.200;112.870;2022-09-27T08:55:05;23.58;;;19.92;;
41952;SDS011;63613;28.200;112.870;2022-09-27T08:58:03;26.02;;;20.67;;
41952;SDS011;63613;28.200;112.870;2022-09-27T09:00:50;24.38;;;21.02;;
41952;SDS011;63613;28.200;112.870;2022-09-27T09:03:24;26.35;;;20.05;;
41952;SDS011;63613;28.200;112.870;2022-09-27T09:12:11;25.35;;;22.35;;
41952;SDS011;63613;28.200;112.870;2022-09-27T09:20:20;28.25;;;20.52;;
41952;SDS011;63613;28.200;112.870;2022-09-27T09:25:30;25.98;;;20.98;;
41952;SDS011;63613;28.200;112.870;2022-09-27T09:33:55;30.25;;;23.27;;
41952;SDS011;63613;28.200;112.870;2022-09-27T09:36:33;27.17;;;23.60;;
41952;SDS011;63613;28.200;112.870;2022-09-27T09:39:12;26.80;;;23.90;;
41952;SDS011;63613;28.200;112.870;2022-09-27T09:42:03;29.20;;;22.75;;
41952;SDS011;63613;28.200;112.870;2022-09-27T09:44:42;28.30;;;22.77;;
41952;SDS011;63613;28.200;112.870;2022-09-27T09:50:35;39.42;;;24.45;;
41952;SDS011;63613;28.200;112.870;2022-09-27T09:55:57;31.90;;;23.60;;
41952;SDS011;63613;28.200;112.870;2022-09-27T09:58:33;33.67;;;23.27;;
41952;SDS011;63613;28.200;112.870;2022-09-27T10:03:48;27.88;;;21.90;;
41952;SDS011;63613;28.200;112.870;2022-09-27T10:06:15;30.58;;;22.80;;
41952;SDS011;63613;28.200;112.870;2022-09-27T10:09:04;27.20;;;22.15;;
41952;SDS011;63613;28.200;112.870;2022-09-27T10:11:35;34.80;;;24.83;;
41952;SDS011;63613;28.200;112.870;2022-09-27T10:14:14;33.13;;;25.95;;
41952;SDS011;63613;28.200;112.870;2022-09-27T10:17:02;34.05;;;25.08;;
41952;SDS011;63613;28.200;112.870;2022-09-27T10:19:36;31.92;;;27.45;;
41952;SDS011;63613;28.200;112.870;2022-09-27T10:22:18;37.97;;;27.42;;
41952;SDS011;63613;28.200;112.870;2022-09-27T10:24:58;33.47;;;24.98;;
41952;SDS011;63613;28.200;112.870;2022-09-27T10:27:36;37.67;;;26.13;;
41952;SDS011;63613;28.200;112.870;2022-09-27T10:30:05;42.80;;;28.08;;
41952;SDS011;63613;28.200;112.870;2022-09-27T10:32:47;37.83;;;26.92;;
41952;SDS011;63613;28.200;112.870;2022-09-27T10:35:21;34.10;;;24.85;;
41952;SDS011;63613;28.200;112.870;2022-09-27T10:40:42;37.75;;;26.88;;
41952;SDS011;63613;28.200;112.870;2022-09-27T10:46:02;38.05;;;29.52;;
41952;SDS011;63613;28.200;112.870;2022-09-27T10:51:51;42.83;;;30.60;;
41952;SDS011;63613;28.200;112.870;2022-09-27T10:54:28;36.28;;;28.33;;
41952;SDS011;63613;28.200;112.870;2022-09-27T10:57:02;40.33;;;32.00;;
41952;SDS011;63613;28.200;112.870;2022-09-27T10:59:43;45.60;;;34.03;;
41952;SDS011;63613;28.200;112.870;2022-09-27T11:05:27;44.92;;;32.67;;
41952;SDS011;63613;28.200;112.870;2022-09-27T11:08:18;41.83;;;32.88;;
41952;SDS011;63613;28.200;112.870;2022-09-27T11:11:32;41.60;;;35.33;;
41952;SDS011;63613;28.200;112.870;2022-09-27T11:13:41;43.33;;;34.58;;
41952;SDS011;63613;28.200;112.870;2022-09-27T11:30:36;44.50;;;34.30;;
41952;SDS011;63613;28.200;112.870;2022-09-27T11:38:43;43.03;;;35.60;;
41952;SDS011;63613;28.200;112.870;2022-09-27T11:44:24;42.38;;;31.95;;
41952;SDS011;63613;28.200;112.870;2022-09-27T12:04:59;43.00;;;37.63;;
41952;SDS011;63613;28.200;112.870;2022-09-27T12:10:14;47.50;;;37.30;;
41952;SDS011;63613;28.200;112.870;2022-09-27T12:12:44;45.00;;;35.88;;
41952;SDS011;63613;28.200;112.870;2022-09-27T12:15:18;52.22;;;37.03;;
41952;SDS011;63613;28.200;112.870;2022-09-27T12:20:53;46.95;;;37.15;;
41952;SDS011;63613;28.200;112.870;2022-09-27T12:23:23;43.67;;;37.70;;
41952;SDS011;63613;28.200;112.870;2022-09-27T12:25:59;51.88;;;41.90;;
41952;SDS011;63613;28.200;112.870;2022-09-27T12:28:51;51.92;;;40.63;;
41952;SDS011;63613;28.200;112.870;2022-09-27T12:31:43;44.95;;;36.05;;
41952;SDS011;63613;28.200;112.870;2022-09-27T12:37:12;43.10;;;38.00;;
41952;SDS011;63613;28.200;112.870;2022-09-27T12:45:11;47.42;;;37.05;;
41952;SDS011;63613;28.200;112.870;2022-09-27T13:01:11;49.03;;;39.38;;
41952;SDS011;63613;28.200;112.870;2022-09-27T13:06:23;50.97;;;41.22;;
41952;SDS011;63613;28.200;112.870;2022-09-27T13:14:40;45.75;;;37.67;;
41952;SDS011;63613;28.200;112.870;2022-09-27T13:17:32;45.65;;;38.38;;
41952;SDS011;63613;28.200;112.870;2022-09-27T13:25:52;46.47;;;37.25;;
41952;SDS011;63613;28.200;112.870;2022-09-27T13:31:15;48.80;;;38.17;;
41952;SDS011;63613;28.200;112.870;2022-09-27T13:34:03;44.40;;;35.63;;
41952;SDS011;63613;28.200;112.870;2022-09-27T13:36:50;45.15;;;33.10;;
41952;SDS011;63613;28.200;112.870;2022-09-27T13:39:17;42.40;;;32.88;;
41952;SDS011;63613;28.200;112.870;2022-09-27T13:47:30;36.75;;;27.23;;
41952;SDS011;63613;28.200;112.870;2022-09-27T13:50:02;34.95;;;25.73;;
41952;SDS011;63613;28.200;112.870;2022-09-27T13:52:42;41.90;;;27.25;;
41952;SDS011;63613;28.200;112.870;2022-09-27T13:58:14;31.15;;;24.85;;
41952;SDS011;63613;28.200;112.870;2022-09-27T14:00:57;29.02;;;23.92;;
41952;SDS011;63613;28.200;112.870;2022-09-27T14:03:46;31.50;;;23.20;;
41952;SDS011;63613;28.200;112.870;2022-09-27T14:06:40;28.90;;;22.98;;
41952;SDS011;63613;28.200;112.870;2022-09-27T14:09:16;32.95;;;24.50;;
41952;SDS011;63613;28.200;112.870;2022-09-27T14:11:55;34.55;;;24.60;;
41952;SDS011;63613;28.200;112.870;2022-09-27T14:14:37;31.30;;;24.02;;
41952;SDS011;63613;28.200;112.870;2022-09-27T14:17:09;36.10;;;25.05;;
41952;SDS011;63613;28.200;112.870;2022-09-27T14:19:40;35.55;;;27.88;;
41952;SDS011;63613;28.200;112.870;2022-09-27T14:22:13;36.55;;;28.02;;
41952;SDS011;63613;28.200;112.870;2022-09-27T14:24:45;42.30;;;27.73;;
41952;SDS011;63613;28.200;112.870;2022-09-27T14:27:18;39.40;;;28.63;;
41952;SDS011;63613;28.200;112.870;2022-09-27T14:29:47;39.92;;;29.40;;
41952;SDS011;63613;28.200;112.870;2022-09-27T14:32:22;37.00;;;27.42;;
41952;SDS011;63613;28.200;112.870;2022-09-27T14:37:53;38.90;;;29.35;;
41952;SDS011;63613;28.200;112.870;2022-09-27T14:40:21;36.17;;;25.13;;
41952;SDS011;63613;28.200;112.870;2022-09-27T14:42:51;34.78;;;27.73;;
41952;SDS011;63613;28.200;112.870;2022-09-27T14:45:37;35.28;;;27.10;;
41952;SDS011;63613;28.200;112.870;2022-09-27T14:48:27;37.35;;;27.50;;
41952;SDS011;63613;28.200;112.870;2022-09-27T14:56:16;38.20;;;27.58;;
41952;SDS011;63613;28.200;112.870;2022-09-27T15:01:18;36.63;;;30.88;;
41952;SDS011;63613;28.200;112.870;2022-09-27T15:03:46;41.67;;;30.83;;
41952;SDS011;63613;28.200;112.870;2022-09-27T15:06:14;36.60;;;30.30;;
41952;SDS011;63613;28.200;112.870;2022-09-27T15:08:42;48.60;;;33.88;;
41952;SDS011;63613;28.200;112.870;2022-09-27T15:11:14;42.65;;;34.72;;
41952;SDS011;63613;28.200;112.870;2022-09-27T15:13:45;45.67;;;38.08;;
41952;SDS011;63613;28.200;112.870;2022-09-27T15:16:16;42.55;;;37.78;;
41952;SDS011;63613;28.200;112.870;2022-09-27T15:19:11;42.63;;;36.63;;
41952;SDS011;63613;28.200;112.870;2022-09-27T15:21:40;47.08;;;34.33;;
41952;SDS011;63613;28.200;112.870;2022-09-27T15:24:34;43.95;;;34.58;;
41952;SDS011;63613;28.200;112.870;2022-09-27T15:27:14;45.22;;;35.60;;
41952;SDS011;63613;28.200;112.870;2022-09-27T15:29:53;48.28;;;33.95;;
41952;SDS011;63613;28.200;112.870;2022-09-27T15:32:22;41.90;;;34.13;;
41952;SDS011;63613;28.200;112.870;2022-09-27T15:34:52;44.20;;;33.42;;
41952;SDS011;63613;28.200;112.870;2022-09-27T15:37:27;45.17;;;35.90;;
41952;SDS011;63613;28.200;112.870;2022-09-27T15:40:07;42.92;;;33.20;;
41952;SDS011;63613;28.200;112.870;2022-09-27T15:43:12;48.40;;;35.67;;
41952;SDS011;63613;28.200;112.870;2022-09-27T15:45:54;39.90;;;33.85;;
41952;SDS011;63613;28.200;112.870;2022-09-27T15:48:30;41.58;;;33.10;;
41952;SDS011;63613;28.200;112.870;2022-09-27T15:51:01;39.53;;;33.05;;
41952;SDS011;63613;28.200;112.870;2022-09-27T15:53:51;44.63;;;34.38;;
41952;SDS011;63613;28.200;112.870;2022-09-27T15:56:20;43.83;;;33.90;;
41952;SDS011;63613;28.200;112.870;2022-09-27T15:58:47;40.00;;;33.75;;
41952;SDS011;63613;28.200;112.870;2022-09-27T16:01:16;44.38;;;33.17;;
41952;SDS011;63613;28.200;112.870;2022-09-27T16:03:45;47.60;;;34.83;;
41952;SDS011;63613;28.200;112.870;2022-09-27T16:06:13;38.90;;;33.50;;
41952;SDS011;63613;28.200;112.870;2022-09-27T16:08:40;41.65;;;35.08;;
41952;SDS011;63613;28.200;112.870;2022-09-27T16:11:13;51.38;;;36.83;;
41952;SDS011;63613;28.200;112.870;2022-09-27T16:13:44;43.20;;;34.13;;
41952;SDS011;63613;28.200;112.870;2022-09-27T16:16:17;46.65;;;37.20;;
41952;SDS011;63613;28.200;112.870;2022-09-27T16:18:47;43.88;;;33.50;;
41952;SDS011;63613;28.200;112.870;2022-09-27T16:21:14;47.10;;;33.75;;
41952;SDS011;63613;28.200;112.870;2022-09-27T16:23:43;41.13;;;35.75;;
41952;SDS011;63613;28.200;112.870;2022-09-27T16:26:10;48.05;;;35.63;;
41952;SDS011;63613;28.200;112.870;2022-09-27T16:28:38;50.58;;;35.85;;
41952;SDS011;63613;28.200;112.870;2022-09-27T16:31:08;45.00;;;37.33;;
41952;SDS011;63613;28.200;112.870;2022-09-27T16:33:37;50.00;;;37.85;;
41952;SDS011;63613;28.200;112.870;2022-09-27T16:36:07;43.00;;;32.00;;
41952;SDS011;63613;28.200;112.870;2022-09-27T16:38:41;46.42;;;33.92;;
41952;SDS011;63613;28.200;112.870;2022-09-27T16:41:08;42.13;;;34.65;;
41952;SDS011;63613;28.200;112.870;2022-09-27T16:43:58;41.78;;;32.85;;
41952;SDS011;63613;28.200;112.870;2022-09-27T16:46:40;38.30;;;30.70;;
41952;SDS011;63613;28.200;112.870;2022-09-27T16:49:12;44.97;;;34.97;;
41952;SDS011;63613;28.200;112.870;2022-09-27T16:51:57;37.10;;;30.65;;
41952;SDS011;63613;28.200;112.870;2022-09-27T16:54:29;38.97;;;29.85;;
41952;SDS011;63613;28.200;112.870;2022-09-27T16:56:56;42.13;;;31.55;;
41952;SDS011;63613;28.200;112.870;2022-09-27T16:59:24;45.25;;;33.10;;
41952;SDS011;63613;28.200;112.870;2022-09-27T17:01:55;38.83;;;31.90;;
41952;SDS011;63613;28.200;112.870;2022-09-27T17:04:22;41.10;;;32.40;;
41952;SDS011;63613;28.200;112.870;2022-09-27T17:06:53;39.33;;;31.52;;
41952;SDS011;63613;28.200;112.870;2022-09-27T17:09:21;44.28;;;31.50;;
41952;SDS011;63613;28.200;112.870;2022-09-27T17:11:50;41.10;;;31.95;;
41952;SDS011;63613;28.200;112.870;2022-09-27T17:14:17;41.90;;;30.65;;
41952;SDS011;63613;28.200;112.870;2022-09-27T17:16:51;43.55;;;31.05;;
41952;SDS011;63613;28.200;112.870;2022-09-27T17:22:06;36.13;;;29.67;;
41952;SDS011;63613;28.200;112.870;2022-09-27T17:24:34;41.60;;;32.30;;
41952;SDS011;63613;28.200;112.870;2022-09-27T17:27:01;41.15;;;31.08;;
41952;SDS011;63613;28.200;112.870;2022-09-27T17:29:28;40.72;;;33.13;;
41952;SDS011;63613;28.200;112.870;2022-09-27T17:31:55;45.42;;;30.00;;
41952;SDS011;63613;28.200;112.870;2022-09-27T17:34:22;37.10;;;29.25;;
41952;SDS011;63613;28.200;112.870;2022-09-27T17:36:50;36.63;;;31.27;;
41952;SDS011;63613;28.200;112.870;2022-09-27T17:39:18;36.50;;;28.48;;
41952;SDS011;63613;28.200;112.870;2022-09-27T17:41:49;43.22;;;28.60;;
41952;SDS011;63613;28.200;112.870;2022-09-27T17:44:17;35.80;;;27.88;;
41952;SDS011;63613;28.200;112.870;2022-09-27T17:46:48;36.83;;;28.50;;
41952;SDS011;63613;28.200;112.870;2022-09-27T17:49:35;42.70;;;31.08;;
41952;SDS011;63613;28.200;112.870;2022-09-27T17:52:20;39.88;;;32.10;;
41952;SDS011;63613;28.200;112.870;2022-09-27T17:54:51;40.90;;;29.70;;
41952;SDS011;63613;28.200;112.870;2022-09-27T17:57:20;40.45;;;33.58;;
41952;SDS011;63613;28.200;112.870;2022-09-27T17:59:47;43.13;;;32.72;;